sensor_id;sensor_type;location;lat;lon;timestamp;temperature;humidity
52273;DHT22;38227;50.942;4.016;2022-11-20T00:02:07;5.50;99.90
52273;DHT22;38227;50.942;4.016;2022-11-20T00:04:38;5.50;99.90
52273;DHT22;38227;50.942;4.016;2022-11-20T00:07:13;5.50;99.90
52273;DHT22;38227;50.942;4.016;2022-11-20T00:09:50;5.60;99.90
52273;DHT22;38227;50.942;4.016;2022-11-20T00:12:21;5.50;99.90
52273;DHT22;38227;50.942;4.016;2022-11-20T00:15:03;5.50;99.90
52273;DHT22;38227;50.942;4.016;2022-11-20T00:17:34;5.40;99.90
52273;DHT22;38227;50.942;4.016;2022-11-20T00:20:12;5.30;99.90
52273;DHT22;38227;50.942;4.016;2022-11-20T00:22:44;5.30;99.90
52273;DHT22;38227;50.942;4.016;2022-11-20T00:25:16;5.20;99.90
52273;DHT22;38227;50.942;4.016;2022-11-20T00:27:46;5.20;99.90
52273;DHT22;38227;50.942;4.016;2022-11-20T00:30:18;5.40;99.90
52273;DHT22;38227;50.942;4.016;2022-11-20T00:32:57;5.40;99.90
52273;DHT22;38227;50.942;4.016;2022-11-20T00:35:29;5.50;99.90
52273;DHT22;38227;50.942;4.016;2022-11-20T00:38:04;5.40;99.90
52273;DHT22;38227;50.942;4.016;2022-11-20T00:40:41;5.50;99.90
52273;DHT22;38227;50.942;4.016;2022-11-20T00:43:22;5.40;99.90
52273;DHT22;38227;50.942;4.016;2022-11-20T00:46:00;5.40;99.90
52273;DHT22;38227;50.942;4.016;2022-11-20T00:48:39;5.40;99.90
52273;DHT22;38227;50.942;4.016;2022-11-20T00:51:12;5.30;99.90
52273;DHT22;38227;50.942;4.016;2022-11-20T00:53:44;5.40;99.90
52273;DHT22;38227;50.942;4.016;2022-11-20T00:56:31;5.30;99.90
52273;DHT22;38227;50.942;4.016;2022-11-20T00:59:03;5.40;99.90
52273;DHT22;38227;50.942;4.016;2022-11-20T01:01:34;5.30;99.90
52273;DHT22;38227;50.942;4.016;2022-11-20T01:04:12;5.30;99.90
52273;DHT22;38227;50.942;4.016;2022-11-20T01:06:49;5.30;99.90
52273;DHT22;38227;50.942;4.016;2022-11-20T01:09:23;5.40;99.90
52273;DHT22;38227;50.942;4.016;2022-11-20T01:12:00;5.50;99.90
52273;DHT22;38227;50.942;4.016;2022-11-20T01:14:35;5.50;99.90
52273;DHT22;38227;50.942;4.016;2022-11-20T01:17:06;5.40;99.90
52273;DHT22;38227;50.942;4.016;2022-11-20T01:19:42;5.40;99.90
52273;DHT22;38227;50.942;4.016;2022-11-20T01:22:09;5.60;99.90
52273;DHT22;38227;50.942;4.016;2022-11-20T01:24:38;5.60;99.90
52273;DHT22;38227;50.942;4.016;2022-11-20T01:27:10;5.50;99.90
52273;DHT22;38227;50.942;4.016;2022-11-20T01:29:48;5.60;99.90
52273;DHT22;38227;50.942;4.016;2022-11-20T01:32:17;5.50;99.90
52273;DHT22;38227;50.942;4.016;2022-11-20T01:34:45;5.50;99.90
52273;DHT22;38227;50.942;4.016;2022-11-20T01:37:17;5.40;99.90
52273;DHT22;38227;50.942;4.016;2022-11-20T01:39:56;5.50;99.90
52273;DHT22;38227;50.942;4.016;2022-11-20T01:42:24;5.60;99.90
52273;DHT22;38227;50.942;4.016;2022-11-20T01:48:14;5.70;99.90
52273;DHT22;38227;50.942;4.016;2022-11-20T01:50:45;5.70;99.90
52273;DHT22;38227;50.942;4.016;2022-11-20T01:53:18;5.60;99.90
52273;DHT22;38227;50.942;4.016;2022-11-20T01:55:53;5.70;99.90
52273;DHT22;38227;50.942;4.016;2022-11-20T01:58:27;5.60;99.90
52273;DHT22;38227;50.942;4.016;2022-11-20T02:01:00;5.80;99.90
52273;DHT22;38227;50.942;4.016;2022-11-20T02:03:33;5.80;99.90
52273;DHT22;38227;50.942;4.016;2022-11-20T02:06:44;5.80;99.90
52273;DHT22;38227;50.942;4.016;2022-11-20T02:09:10;5.80;99.90
52273;DHT22;38227;50.942;4.016;2022-11-20T02:11:38;6.00;99.90
52273;DHT22;38227;50.942;4.016;2022-11-20T02:14:08;5.90;99.90
52273;DHT22;38227;50.942;4.016;2022-11-20T02:16:39;6.00;99.90
52273;DHT22;38227;50.942;4.016;2022-11-20T02:19:16;5.80;99.90
52273;DHT22;38227;50.942;4.016;2022-11-20T02:22:07;5.90;99.90
52273;DHT22;38227;50.942;4.016;2022-11-20T02:24:41;5.80;99.90
52273;DHT22;38227;50.942;4.016;2022-11-20T02:27:21;5.80;99.90
52273;DHT22;38227;50.942;4.016;2022-11-20T02:30:00;5.60;99.90
52273;DHT22;38227;50.942;4.016;2022-11-20T02:32:36;5.50;99.90
52273;DHT22;38227;50.942;4.016;2022-11-20T02:35:40;5.80;99.90
52273;DHT22;38227;50.942;4.016;2022-11-20T02:38:19;5.80;99.90
52273;DHT22;38227;50.942;4.016;2022-11-20T02:40:57;5.70;99.90
52273;DHT22;38227;50.942;4.016;2022-11-20T02:43:32;5.80;99.90
52273;DHT22;38227;50.942;4.016;2022-11-20T02:46:07;5.90;99.90
52273;DHT22;38227;50.942;4.016;2022-11-20T02:48:49;5.80;99.90
52273;DHT22;38227;50.942;4.016;2022-11-20T02:51:20;5.70;99.90
52273;DHT22;38227;50.942;4.016;2022-11-20T02:53:49;5.80;99.90
52273;DHT22;38227;50.942;4.016;2022-11-20T02:56:17;5.90;99.90
52273;DHT22;38227;50.942;4.016;2022-11-20T02:58:47;6.00;99.90
52273;DHT22;38227;50.942;4.016;2022-11-20T03:01:14;6.10;99.90
52273;DHT22;38227;50.942;4.016;2022-11-20T03:03:52;6.10;99.90
52273;DHT22;38227;50.942;4.016;2022-11-20T03:06:20;6.10;99.90
52273;DHT22;38227;50.942;4.016;2022-11-20T03:08:49;6.00;99.90
52273;DHT22;38227;50.942;4.016;2022-11-20T03:11:18;6.00;99.90
52273;DHT22;38227;50.942;4.016;2022-11-20T03:13:46;6.10;99.90
52273;DHT22;38227;50.942;4.016;2022-11-20T03:16:18;6.10;99.90
52273;DHT22;38227;50.942;4.016;2022-11-20T03:18:46;6.00;99.90
52273;DHT22;38227;50.942;4.016;2022-11-20T03:21:20;6.10;99.90
52273;DHT22;38227;50.942;4.016;2022-11-20T03:23:49;6.10;99.90
52273;DHT22;38227;50.942;4.016;2022-11-20T03:26:24;6.10;99.90
52273;DHT22;38227;50.942;4.016;2022-11-20T03:28:56;6.20;99.90
52273;DHT22;38227;50.942;4.016;2022-11-20T03:31:28;6.10;99.90
52273;DHT22;38227;50.942;4.016;2022-11-20T03:33:58;6.20;99.90
52273;DHT22;38227;50.942;4.016;2022-11-20T03:36:27;6.30;99.90
52273;DHT22;38227;50.942;4.016;2022-11-20T03:38:56;6.30;99.90
52273;DHT22;38227;50.942;4.016;2022-11-20T03:41:30;6.40;99.90
52273;DHT22;38227;50.942;4.016;2022-11-20T03:44:02;6.30;99.90
52273;DHT22;38227;50.942;4.016;2022-11-20T03:46:31;6.20;99.90
52273;DHT22;38227;50.942;4.016;2022-11-20T03:49:01;6.10;99.90
52273;DHT22;38227;50.942;4.016;2022-11-20T03:51:34;6.20;99.90
52273;DHT22;38227;50.942;4.016;2022-11-20T03:54:07;6.20;99.90
52273;DHT22;38227;50.942;4.016;2022-11-20T03:56:36;6.20;99.90
52273;DHT22;38227;50.942;4.016;2022-11-20T03:59:10;6.30;99.90
52273;DHT22;38227;50.942;4.016;2022-11-20T04:01:38;6.10;99.90
52273;DHT22;38227;50.942;4.016;2022-11-20T04:04:11;6.10;99.90
52273;DHT22;38227;50.942;4.016;2022-11-20T04:06:39;6.10;99.90
52273;DHT22;38227;50.942;4.016;2022-11-20T04:09:17;6.10;99.90
52273;DHT22;38227;50.942;4.016;2022-11-20T04:11:45;6.10;99.90
52273;DHT22;38227;50.942;4.016;2022-11-20T04:14:15;6.10;99.90
52273;DHT22;38227;50.942;4.016;2022-11-20T04:16:43;6.10;99.90
52273;DHT22;38227;50.942;4.016;2022-11-20T04:19:15;6.00;99.90
52273;DHT22;38227;50.942;4.016;2022-11-20T04:21:43;6.00;99.90
52273;DHT22;38227;50.942;4.016;2022-11-20T04:24:14;6.10;99.90
52273;DHT22;38227;50.942;4.016;2022-11-20T04:26:42;6.10;99.90
52273;DHT22;38227;50.942;4.016;2022-11-20T04:29:21;6.10;99.90
52273;DHT22;38227;50.942;4.016;2022-11-20T04:31:48;6.10;99.90
52273;DHT22;38227;50.942;4.016;2022-11-20T04:34:22;6.20;99.90
52273;DHT22;38227;50.942;4.016;2022-11-20T04:36:50;6.20;99.90
52273;DHT22;38227;50.942;4.016;2022-11-20T04:39:23;6.30;99.90
52273;DHT22;38227;50.942;4.016;2022-11-20T04:41:50;6.20;99.90
52273;DHT22;38227;50.942;4.016;2022-11-20T04:44:48;6.30;99.90
52273;DHT22;38227;50.942;4.016;2022-11-20T04:47:29;6.30;99.90
52273;DHT22;38227;50.942;4.016;2022-11-20T04:49:57;6.30;99.90
52273;DHT22;38227;50.942;4.016;2022-11-20T04:52:29;6.30;99.90
52273;DHT22;38227;50.942;4.016;2022-11-20T04:54:57;6.30;99.90
52273;DHT22;38227;50.942;4.016;2022-11-20T04:57:35;6.30;99.90
52273;DHT22;38227;50.942;4.016;2022-11-20T05:00:05;6.20;99.90
52273;DHT22;38227;50.942;4.016;2022-11-20T05:02:44;6.20;99.90
52273;DHT22;38227;50.942;4.016;2022-11-20T05:05:12;6.20;99.90
52273;DHT22;38227;50.942;4.016;2022-11-20T05:07:45;6.40;99.90
52273;DHT22;38227;50.942;4.016;2022-11-20T05:10:13;6.30;99.90
52273;DHT22;38227;50.942;4.016;2022-11-20T05:12:51;6.30;99.90
52273;DHT22;38227;50.942;4.016;2022-11-20T05:15:20;6.30;99.90
52273;DHT22;38227;50.942;4.016;2022-11-20T05:17:52;6.30;99.90
52273;DHT22;38227;50.942;4.016;2022-11-20T05:20:25;6.30;99.90
52273;DHT22;38227;50.942;4.016;2022-11-20T05:22:59;6.30;99.90
52273;DHT22;38227;50.942;4.016;2022-11-20T05:25:30;6.30;99.90
52273;DHT22;38227;50.942;4.016;2022-11-20T05:28:07;6.30;99.90
52273;DHT22;38227;50.942;4.016;2022-11-20T05:30:48;6.40;99.90
52273;DHT22;38227;50.942;4.016;2022-11-20T05:33:19;6.30;99.90
52273;DHT22;38227;50.942;4.016;2022-11-20T05:35:58;6.20;99.90
52273;DHT22;38227;50.942;4.016;2022-11-20T05:38:34;6.20;99.90
52273;DHT22;38227;50.942;4.016;2022-11-20T05:41:16;6.20;99.90
52273;DHT22;38227;50.942;4.016;2022-11-20T05:43:49;6.20;99.90
52273;DHT22;38227;50.942;4.016;2022-11-20T05:46:30;6.20;99.90
52273;DHT22;38227;50.942;4.016;2022-11-20T05:49:01;6.20;99.90
52273;DHT22;38227;50.942;4.016;2022-11-20T05:51:42;6.10;99.90
52273;DHT22;38227;50.942;4.016;2022-11-20T05:54:19;6.10;99.90
52273;DHT22;38227;50.942;4.016;2022-11-20T05:56:53;6.10;99.90
52273;DHT22;38227;50.942;4.016;2022-11-20T05:59:24;6.20;99.90
52273;DHT22;38227;50.942;4.016;2022-11-20T06:01:59;6.30;99.90
52273;DHT22;38227;50.942;4.016;2022-11-20T06:04:30;6.30;99.90
52273;DHT22;38227;50.942;4.016;2022-11-20T06:07:05;6.20;99.90
52273;DHT22;38227;50.942;4.016;2022-11-20T06:09:36;6.20;99.90
52273;DHT22;38227;50.942;4.016;2022-11-20T06:12:11;6.20;99.90
52273;DHT22;38227;50.942;4.016;2022-11-20T06:14:42;6.20;99.90
52273;DHT22;38227;50.942;4.016;2022-11-20T06:17:17;6.20;99.90
52273;DHT22;38227;50.942;4.016;2022-11-20T06:19:54;6.20;99.90
52273;DHT22;38227;50.942;4.016;2022-11-20T06:22:24;6.30;99.90
52273;DHT22;38227;50.942;4.016;2022-11-20T06:24:59;6.40;99.90
52273;DHT22;38227;50.942;4.016;2022-11-20T06:27:30;6.40;99.90
52273;DHT22;38227;50.942;4.016;2022-11-20T06:30:04;6.40;99.90
52273;DHT22;38227;50.942;4.016;2022-11-20T06:32:38;6.30;99.90
52273;DHT22;38227;50.942;4.016;2022-11-20T06:35:16;6.40;99.90
52273;DHT22;38227;50.942;4.016;2022-11-20T06:38:03;6.30;99.90
52273;DHT22;38227;50.942;4.016;2022-11-20T06:40:34;6.30;99.90
52273;DHT22;38227;50.942;4.016;2022-11-20T06:43:09;6.30;99.90
52273;DHT22;38227;50.942;4.016;2022-11-20T06:45:40;6.50;99.90
52273;DHT22;38227;50.942;4.016;2022-11-20T06:48:13;6.50;99.90
52273;DHT22;38227;50.942;4.016;2022-11-20T06:50:42;6.60;99.90
52273;DHT22;38227;50.942;4.016;2022-11-20T06:53:19;6.70;99.90
52273;DHT22;38227;50.942;4.016;2022-11-20T06:55:48;6.80;99.90
52273;DHT22;38227;50.942;4.016;2022-11-20T06:58:17;6.80;99.90
52273;DHT22;38227;50.942;4.016;2022-11-20T07:00:45;6.90;99.90
52273;DHT22;38227;50.942;4.016;2022-11-20T07:03:13;7.00;99.90
52273;DHT22;38227;50.942;4.016;2022-11-20T07:05:54;7.00;99.90
52273;DHT22;38227;50.942;4.016;2022-11-20T07:08:22;6.90;99.90
52273;DHT22;38227;50.942;4.016;2022-11-20T07:11:05;6.90;99.90
52273;DHT22;38227;50.942;4.016;2022-11-20T07:13:34;6.90;99.90
52273;DHT22;38227;50.942;4.016;2022-11-20T07:16:04;6.70;99.90
52273;DHT22;38227;50.942;4.016;2022-11-20T07:18:34;6.80;99.90
52273;DHT22;38227;50.942;4.016;2022-11-20T07:21:08;6.80;99.90
52273;DHT22;38227;50.942;4.016;2022-11-20T07:23:36;6.90;99.90
52273;DHT22;38227;50.942;4.016;2022-11-20T07:26:08;7.00;99.90
52273;DHT22;38227;50.942;4.016;2022-11-20T07:28:37;6.90;99.90
52273;DHT22;38227;50.942;4.016;2022-11-20T07:31:17;6.90;99.90
52273;DHT22;38227;50.942;4.016;2022-11-20T07:33:49;7.00;99.90
52273;DHT22;38227;50.942;4.016;2022-11-20T07:36:29;7.00;99.90
52273;DHT22;38227;50.942;4.016;2022-11-20T07:38:59;7.00;99.90
52273;DHT22;38227;50.942;4.016;2022-11-20T07:41:32;7.10;99.90
52273;DHT22;38227;50.942;4.016;2022-11-20T07:44:01;7.20;99.90
52273;DHT22;38227;50.942;4.016;2022-11-20T07:46:29;7.20;99.90
52273;DHT22;38227;50.942;4.016;2022-11-20T07:49:01;7.30;99.90
52273;DHT22;38227;50.942;4.016;2022-11-20T07:51:29;7.30;99.90
52273;DHT22;38227;50.942;4.016;2022-11-20T07:54:02;7.20;99.90
52273;DHT22;38227;50.942;4.016;2022-11-20T07:56:30;7.30;99.90
52273;DHT22;38227;50.942;4.016;2022-11-20T07:59:03;7.30;99.90
52273;DHT22;38227;50.942;4.016;2022-11-20T08:01:31;7.20;99.90
52273;DHT22;38227;50.942;4.016;2022-11-20T08:04:09;7.10;99.90
52273;DHT22;38227;50.942;4.016;2022-11-20T08:06:37;7.20;99.90
52273;DHT22;38227;50.942;4.016;2022-11-20T08:09:09;7.30;99.90
52273;DHT22;38227;50.942;4.016;2022-11-20T08:11:37;7.30;99.90
52273;DHT22;38227;50.942;4.016;2022-11-20T08:14:27;7.40;99.90
52273;DHT22;38227;50.942;4.016;2022-11-20T08:16:55;7.40;99.90
52273;DHT22;38227;50.942;4.016;2022-11-20T08:19:27;7.40;99.90
52273;DHT22;38227;50.942;4.016;2022-11-20T08:21:55;7.40;99.90
52273;DHT22;38227;50.942;4.016;2022-11-20T08:24:27;7.50;99.90
52273;DHT22;38227;50.942;4.016;2022-11-20T08:26:58;7.50;99.90
52273;DHT22;38227;50.942;4.016;2022-11-20T08:29:36;7.60;99.90
52273;DHT22;38227;50.942;4.016;2022-11-20T08:32:14;7.40;99.90
52273;DHT22;38227;50.942;4.016;2022-11-20T08:34:46;7.50;99.90
52273;DHT22;38227;50.942;4.016;2022-11-20T08:37:18;7.40;99.90
52273;DHT22;38227;50.942;4.016;2022-11-20T08:39:47;7.40;99.90
52273;DHT22;38227;50.942;4.016;2022-11-20T08:42:19;7.40;99.90
52273;DHT22;38227;50.942;4.016;2022-11-20T08:44:47;7.40;99.90
52273;DHT22;38227;50.942;4.016;2022-11-20T08:47:19;7.30;99.90
52273;DHT22;38227;50.942;4.016;2022-11-20T08:49:48;7.30;99.90
52273;DHT22;38227;50.942;4.016;2022-11-20T08:52:20;7.40;99.90
52273;DHT22;38227;50.942;4.016;2022-11-20T08:54:48;7.60;99.90
52273;DHT22;38227;50.942;4.016;2022-11-20T08:57:20;7.70;99.90
52273;DHT22;38227;50.942;4.016;2022-11-20T08:59:53;7.80;99.90
52273;DHT22;38227;50.942;4.016;2022-11-20T09:02:25;7.80;99.90
52273;DHT22;38227;50.942;4.016;2022-11-20T09:04:53;7.80;99.90
52273;DHT22;38227;50.942;4.016;2022-11-20T09:07:25;7.80;99.90
52273;DHT22;38227;50.942;4.016;2022-11-20T09:09:53;7.90;99.90
52273;DHT22;38227;50.942;4.016;2022-11-20T09:12:25;7.90;99.90
52273;DHT22;38227;50.942;4.016;2022-11-20T09:14:53;7.90;99.90
52273;DHT22;38227;50.942;4.016;2022-11-20T09:17:25;7.80;99.90
52273;DHT22;38227;50.942;4.016;2022-11-20T09:19:54;7.80;99.90
52273;DHT22;38227;50.942;4.016;2022-11-20T09:22:26;7.90;99.90
52273;DHT22;38227;50.942;4.016;2022-11-20T09:24:54;8.00;99.90
52273;DHT22;38227;50.942;4.016;2022-11-20T09:27:26;7.90;99.90
52273;DHT22;38227;50.942;4.016;2022-11-20T09:29:59;8.10;99.90
52273;DHT22;38227;50.942;4.016;2022-11-20T09:32:30;7.90;99.90
52273;DHT22;38227;50.942;4.016;2022-11-20T09:35:01;7.90;99.90
52273;DHT22;38227;50.942;4.016;2022-11-20T09:37:31;8.10;99.90
52273;DHT22;38227;50.942;4.016;2022-11-20T09:40:00;8.30;99.90
52273;DHT22;38227;50.942;4.016;2022-11-20T09:42:47;8.40;99.90
52273;DHT22;38227;50.942;4.016;2022-11-20T09:48:48;8.40;99.90
52273;DHT22;38227;50.942;4.016;2022-11-20T09:54:22;8.60;99.90
52273;DHT22;38227;50.942;4.016;2022-11-20T09:57:19;8.60;99.90
52273;DHT22;38227;50.942;4.016;2022-11-20T09:59:55;8.50;99.90
52273;DHT22;38227;50.942;4.016;2022-11-20T10:03:06;8.50;99.90
52273;DHT22;38227;50.942;4.016;2022-11-20T10:05:39;8.60;99.90
52273;DHT22;38227;50.942;4.016;2022-11-20T10:08:42;8.60;99.90
52273;DHT22;38227;50.942;4.016;2022-11-20T10:18:23;8.80;99.90
52273;DHT22;38227;50.942;4.016;2022-11-20T10:21:32;9.00;99.90
52273;DHT22;38227;50.942;4.016;2022-11-20T10:30:30;9.20;99.90
52273;DHT22;38227;50.942;4.016;2022-11-20T10:33:04;9.30;99.90
52273;DHT22;38227;50.942;4.016;2022-11-20T10:38:54;9.40;99.90
52273;DHT22;38227;50.942;4.016;2022-11-20T10:41:28;9.40;99.90
52273;DHT22;38227;50.942;4.016;2022-11-20T10:44:05;9.40;99.90
52273;DHT22;38227;50.942;4.016;2022-11-20T10:46:44;9.30;99.90
52273;DHT22;38227;50.942;4.016;2022-11-20T10:49:28;9.30;99.90
52273;DHT22;38227;50.942;4.016;2022-11-20T10:52:13;9.40;99.90
52273;DHT22;38227;50.942;4.016;2022-11-20T10:55:02;9.40;99.90
52273;DHT22;38227;50.942;4.016;2022-11-20T11:00:35;9.50;99.90
52273;DHT22;38227;50.942;4.016;2022-11-20T11:03:24;9.50;99.90
52273;DHT22;38227;50.942;4.016;2022-11-20T11:08:56;9.40;99.90
52273;DHT22;38227;50.942;4.016;2022-11-20T11:11:29;9.30;99.90
52273;DHT22;38227;50.942;4.016;2022-11-20T11:14:24;9.30;99.90
52273;DHT22;38227;50.942;4.016;2022-11-20T11:22:56;9.10;99.90
52273;DHT22;38227;50.942;4.016;2022-11-20T11:25:34;9.10;99.90
52273;DHT22;38227;50.942;4.016;2022-11-20T11:28:18;9.20;99.90
52273;DHT22;38227;50.942;4.016;2022-11-20T11:30:55;9.20;99.90
52273;DHT22;38227;50.942;4.016;2022-11-20T11:33:28;9.20;99.90
52273;DHT22;38227;50.942;4.016;2022-11-20T11:36:00;9.10;99.90
52273;DHT22;38227;50.942;4.016;2022-11-20T11:38:40;9.20;99.90
52273;DHT22;38227;50.942;4.016;2022-11-20T11:41:24;9.20;99.90
52273;DHT22;38227;50.942;4.016;2022-11-20T11:43:58;9.20;99.90
52273;DHT22;38227;50.942;4.016;2022-11-20T11:46:55;9.20;99.90
52273;DHT22;38227;50.942;4.016;2022-11-20T11:49:29;9.30;99.90
52273;DHT22;38227;50.942;4.016;2022-11-20T11:52:18;9.30;99.90
52273;DHT22;38227;50.942;4.016;2022-11-20T11:54:55;9.20;99.90
52273;DHT22;38227;50.942;4.016;2022-11-20T12:00:21;9.00;99.90
52273;DHT22;38227;50.942;4.016;2022-11-20T12:05:50;8.80;99.90
52273;DHT22;38227;50.942;4.016;2022-11-20T12:11:49;8.70;99.90
52273;DHT22;38227;50.942;4.016;2022-11-20T12:14:34;8.70;99.90
52273;DHT22;38227;50.942;4.016;2022-11-20T12:17:12;8.50;99.90
52273;DHT22;38227;50.942;4.016;2022-11-20T12:19:44;8.60;99.90
52273;DHT22;38227;50.942;4.016;2022-11-20T12:25:27;8.60;99.90
52273;DHT22;38227;50.942;4.016;2022-11-20T12:34:52;8.60;99.90
52273;DHT22;38227;50.942;4.016;2022-11-20T12:43:40;8.80;99.90
52273;DHT22;38227;50.942;4.016;2022-11-20T12:52:53;8.80;99.90
52273;DHT22;38227;50.942;4.016;2022-11-20T12:55:50;8.90;99.90
52273;DHT22;38227;50.942;4.016;2022-11-20T13:08:02;8.80;99.90
52273;DHT22;38227;50.942;4.016;2022-11-20T13:17:16;8.70;99.90
52273;DHT22;38227;50.942;4.016;2022-11-20T13:20:06;8.70;99.90
52273;DHT22;38227;50.942;4.016;2022-11-20T13:22:47;8.70;99.90
52273;DHT22;38227;50.942;4.016;2022-11-20T13:25:43;8.70;99.90
52273;DHT22;38227;50.942;4.016;2022-11-20T13:28:30;8.70;99.90
52273;DHT22;38227;50.942;4.016;2022-11-20T13:31:00;8.70;99.90
52273;DHT22;38227;50.942;4.016;2022-11-20T13:33:34;8.70;99.90
52273;DHT22;38227;50.942;4.016;2022-11-20T13:36:06;8.70;99.90
52273;DHT22;38227;50.942;4.016;2022-11-20T13:38:49;8.80;99.90
52273;DHT22;38227;50.942;4.016;2022-11-20T13:41:53;8.70;99.90
52273;DHT22;38227;50.942;4.016;2022-11-20T13:44:43;8.70;99.90
52273;DHT22;38227;50.942;4.016;2022-11-20T13:47:28;8.80;99.90
52273;DHT22;38227;50.942;4.016;2022-11-20T13:49:58;8.70;99.90
52273;DHT22;38227;50.942;4.016;2022-11-20T13:56:19;8.80;99.90
52273;DHT22;38227;50.942;4.016;2022-11-20T14:01:55;8.70;99.90
52273;DHT22;38227;50.942;4.016;2022-11-20T14:04:32;8.70;99.90
52273;DHT22;38227;50.942;4.016;2022-11-20T14:07:06;8.80;99.90
52273;DHT22;38227;50.942;4.016;2022-11-20T14:09:52;8.80;99.90
52273;DHT22;38227;50.942;4.016;2022-11-20T14:12:28;8.80;99.90
52273;DHT22;38227;50.942;4.016;2022-11-20T14:14:59;8.90;99.90
52273;DHT22;38227;50.942;4.016;2022-11-20T14:17:34;9.00;99.90
52273;DHT22;38227;50.942;4.016;2022-11-20T14:20:13;9.00;99.90
52273;DHT22;38227;50.942;4.016;2022-11-20T14:22:49;9.10;99.90
52273;DHT22;38227;50.942;4.016;2022-11-20T14:25:41;9.20;99.90
52273;DHT22;38227;50.942;4.016;2022-11-20T14:28:29;9.10;99.90
52273;DHT22;38227;50.942;4.016;2022-11-20T14:30:59;9.10;99.90
52273;DHT22;38227;50.942;4.016;2022-11-20T14:33:27;9.10;99.90
52273;DHT22;38227;50.942;4.016;2022-11-20T14:35:58;9.30;99.90
52273;DHT22;38227;50.942;4.016;2022-11-20T14:38:28;9.40;99.90
52273;DHT22;38227;50.942;4.016;2022-11-20T14:41:18;9.50;99.90
52273;DHT22;38227;50.942;4.016;2022-11-20T14:43:56;9.50;99.90
52273;DHT22;38227;50.942;4.016;2022-11-20T14:46:27;9.50;99.90
52273;DHT22;38227;50.942;4.016;2022-11-20T14:49:01;9.60;99.90
52273;DHT22;38227;50.942;4.016;2022-11-20T14:51:38;9.70;99.90
52273;DHT22;38227;50.942;4.016;2022-11-20T14:54:14;9.80;99.90
52273;DHT22;38227;50.942;4.016;2022-11-20T14:56:56;9.90;99.90
52273;DHT22;38227;50.942;4.016;2022-11-20T14:59:32;10.00;99.90
52273;DHT22;38227;50.942;4.016;2022-11-20T15:02:10;10.00;99.90
52273;DHT22;38227;50.942;4.016;2022-11-20T15:04:50;10.00;99.90
52273;DHT22;38227;50.942;4.016;2022-11-20T15:07:26;10.00;99.90
52273;DHT22;38227;50.942;4.016;2022-11-20T15:10:04;10.00;99.90
52273;DHT22;38227;50.942;4.016;2022-11-20T15:12:39;10.10;99.90
52273;DHT22;38227;50.942;4.016;2022-11-20T15:15:12;10.00;99.90
52273;DHT22;38227;50.942;4.016;2022-11-20T15:17:42;10.20;99.90
52273;DHT22;38227;50.942;4.016;2022-11-20T15:20:15;10.10;99.90
52273;DHT22;38227;50.942;4.016;2022-11-20T15:22:43;10.10;99.90
52273;DHT22;38227;50.942;4.016;2022-11-20T15:25:18;10.00;99.90
52273;DHT22;38227;50.942;4.016;2022-11-20T15:27:56;9.90;99.90
52273;DHT22;38227;50.942;4.016;2022-11-20T15:30:28;9.90;99.90
52273;DHT22;38227;50.942;4.016;2022-11-20T15:33:01;10.00;99.90
52273;DHT22;38227;50.942;4.016;2022-11-20T15:35:32;10.00;99.90
52273;DHT22;38227;50.942;4.016;2022-11-20T15:38:11;9.90;99.90
52273;DHT22;38227;50.942;4.016;2022-11-20T15:40:40;9.90;99.90
52273;DHT22;38227;50.942;4.016;2022-11-20T15:43:09;10.00;99.90
52273;DHT22;38227;50.942;4.016;2022-11-20T15:46:04;9.90;99.90
52273;DHT22;38227;50.942;4.016;2022-11-20T15:48:43;9.90;99.90
52273;DHT22;38227;50.942;4.016;2022-11-20T15:51:37;9.80;99.90
52273;DHT22;38227;50.942;4.016;2022-11-20T15:54:20;10.00;99.90
52273;DHT22;38227;50.942;4.016;2022-11-20T15:56:49;10.10;99.90
52273;DHT22;38227;50.942;4.016;2022-11-20T15:59:30;10.10;99.90
52273;DHT22;38227;50.942;4.016;2022-11-20T16:01:58;10.00;99.90
52273;DHT22;38227;50.942;4.016;2022-11-20T16:04:32;9.90;99.90
52273;DHT22;38227;50.942;4.016;2022-11-20T16:07:11;9.80;99.90
52273;DHT22;38227;50.942;4.016;2022-11-20T16:09:50;9.80;99.90
52273;DHT22;38227;50.942;4.016;2022-11-20T16:12:19;9.70;99.90
52273;DHT22;38227;50.942;4.016;2022-11-20T16:15:07;9.60;99.90
52273;DHT22;38227;50.942;4.016;2022-11-20T16:17:52;9.70;99.90
52273;DHT22;38227;50.942;4.016;2022-11-20T16:20:24;9.70;99.90
52273;DHT22;38227;50.942;4.016;2022-11-20T16:23:03;9.70;99.90
52273;DHT22;38227;50.942;4.016;2022-11-20T16:25:34;9.70;99.90
52273;DHT22;38227;50.942;4.016;2022-11-20T16:28:13;9.60;99.90
52273;DHT22;38227;50.942;4.016;2022-11-20T16:30:45;9.60;99.90
52273;DHT22;38227;50.942;4.016;2022-11-20T16:33:21;9.60;99.90
52273;DHT22;38227;50.942;4.016;2022-11-20T16:35:57;9.50;99.90
52273;DHT22;38227;50.942;4.016;2022-11-20T16:38:29;9.50;99.90
52273;DHT22;38227;50.942;4.016;2022-11-20T16:41:08;9.60;99.90
52273;DHT22;38227;50.942;4.016;2022-11-20T16:43:49;9.60;99.90
52273;DHT22;38227;50.942;4.016;2022-11-20T16:46:24;9.60;99.90
52273;DHT22;38227;50.942;4.016;2022-11-20T16:51:43;9.70;99.90
52273;DHT22;38227;50.942;4.016;2022-11-20T16:54:25;9.70;99.90
52273;DHT22;38227;50.942;4.016;2022-11-20T16:56:55;9.90;99.90
52273;DHT22;38227;50.942;4.016;2022-11-20T16:59:37;10.00;99.90
52273;DHT22;38227;50.942;4.016;2022-11-20T17:02:05;9.90;99.90
52273;DHT22;38227;50.942;4.016;2022-11-20T17:04:34;10.10;99.90
52273;DHT22;38227;50.942;4.016;2022-11-20T17:07:07;9.90;99.90
52273;DHT22;38227;50.942;4.016;2022-11-20T17:09:35;9.90;99.90
52273;DHT22;38227;50.942;4.016;2022-11-20T17:12:04;9.90;99.90
52273;DHT22;38227;50.942;4.016;2022-11-20T17:14:33;9.80;99.90
52273;DHT22;38227;50.942;4.016;2022-11-20T17:17:02;9.80;99.90
52273;DHT22;38227;50.942;4.016;2022-11-20T17:19:31;9.80;99.90
52273;DHT22;38227;50.942;4.016;2022-11-20T17:22:03;9.90;99.90
52273;DHT22;38227;50.942;4.016;2022-11-20T17:24:33;9.80;99.90
52273;DHT22;38227;50.942;4.016;2022-11-20T17:27:05;9.90;99.90
52273;DHT22;38227;50.942;4.016;2022-11-20T17:29:34;9.90;99.90
52273;DHT22;38227;50.942;4.016;2022-11-20T17:32:03;9.90;99.90
52273;DHT22;38227;50.942;4.016;2022-11-20T17:34:42;9.90;99.90
52273;DHT22;38227;50.942;4.016;2022-11-20T17:37:11;10.00;99.90
52273;DHT22;38227;50.942;4.016;2022-11-20T17:39:50;9.90;99.90
52273;DHT22;38227;50.942;4.016;2022-11-20T17:42:19;9.70;99.90
52273;DHT22;38227;50.942;4.016;2022-11-20T17:44:58;9.80;99.90
52273;DHT22;38227;50.942;4.016;2022-11-20T17:47:27;9.80;99.90
52273;DHT22;38227;50.942;4.016;2022-11-20T17:50:05;9.70;99.90
52273;DHT22;38227;50.942;4.016;2022-11-20T17:52:34;9.60;99.90
52273;DHT22;38227;50.942;4.016;2022-11-20T17:55:04;9.60;99.90
52273;DHT22;38227;50.942;4.016;2022-11-20T17:57:38;9.60;99.90
52273;DHT22;38227;50.942;4.016;2022-11-20T18:00:27;9.90;99.90
52273;DHT22;38227;50.942;4.016;2022-11-20T18:03:06;9.80;99.90
52273;DHT22;38227;50.942;4.016;2022-11-20T18:05:35;9.70;99.90
52273;DHT22;38227;50.942;4.016;2022-11-20T18:08:03;9.70;99.90
52273;DHT22;38227;50.942;4.016;2022-11-20T18:10:37;9.60;99.90